Time;durP1;ratioP1;P1;durP2;ratioP2;P2;SDS_P1;SDS_P2;PMS_P1;PMS_P2;Temp;Humidity;BMP_temperature;BMP_pressure;BME280_temperature;BME280_humidity;BME280_pressure;Samples;Min_cycle;Max_cycle;Signal;HPM_P1;HPM_P2
2021/09/01 00:01:05;;;;;;;6.78;3.60;;;18.10;71.60;;;;;;5034201;28;20033;-81
2021/09/01 00:03:31;;;;;;;6.43;3.42;;;18.00;71.60;;;;;;5050354;28;20083;-80
2021/09/01 00:05:56;;;;;;;6.07;3.50;;;18.00;71.80;;;;;;5050420;28;20041;-81
2021/09/01 00:08:22;;;;;;;5.57;3.47;;;17.90;72.00;;;;;;5052626;28;20584;-80
2021/09/01 00:10:48;;;;;;;6.07;3.28;;;17.90;71.70;;;;;;5054788;28;20035;-80
2021/09/01 00:13:14;;;;;;;4.63;3.40;;;17.90;71.70;;;;;;5053447;28;20483;-80
2021/09/01 00:15:39;;;;;;;8.55;3.30;;;17.90;71.80;;;;;;5055032;28;20075;-81
2021/09/01 00:18:05;;;;;;;6.65;3.50;;;17.90;71.70;;;;;;5036852;28;20571;-79
2021/09/01 00:20:32;;;;;;;5.43;3.58;;;17.90;71.90;;;;;;5034683;28;20084;-80
2021/09/01 00:22:57;;;;;;;5.88;3.63;;;17.90;72.10;;;;;;5034803;28;20049;-81
2021/09/01 00:25:23;;;;;;;4.55;3.55;;;17.80;72.00;;;;;;5033435;28;20021;-80
2021/09/01 00:27:49;;;;;;;5.07;3.55;;;17.80;72.10;;;;;;5052839;28;20033;-80
2021/09/01 00:30:15;;;;;;;5.70;3.65;;;17.80;72.30;;;;;;5053282;28;20022;-80
2021/09/01 00:32:40;;;;;;;5.70;4.15;;;17.80;72.50;;;;;;5053642;28;20025;-81
2021/09/01 00:35:07;;;;;;;5.22;3.83;;;17.80;72.60;;;;;;5052540;28;20029;-80
2021/09/01 00:37:32;;;;;;;4.15;3.65;;;17.80;72.50;;;;;;5054737;28;20146;-80
2021/09/01 00:39:58;;;;;;;5.75;3.67;;;17.70;72.90;;;;;;5055307;28;20490;-80
2021/09/01 00:42:24;;;;;;;9.32;3.83;;;17.70;73.00;;;;;;5073076;28;20062;-81
2021/09/01 00:44:49;;;;;;;6.13;3.70;;;17.70;72.70;;;;;;5041434;28;20037;-80
2021/09/01 00:47:17;;;;;;;5.18;3.83;;;17.60;73.10;;;;;;5038055;28;20484;-81
2021/09/01 00:49:44;;;;;;;5.65;3.40;;;17.60;73.10;;;;;;5038182;28;20036;-80
2021/09/01 00:52:11;;;;;;;7.22;3.83;;;17.70;73.10;;;;;;5038255;28;20025;-81
2021/09/01 00:54:43;;;;;;;5.32;3.60;;;17.60;73.00;;;;;;5053056;28;20026;-81
2021/09/01 00:57:10;;;;;;;6.68;3.33;;;17.70;72.90;;;;;;5037967;28;20388;-80
2021/09/01 00:59:39;;;;;;;6.18;3.70;;;17.70;72.80;;;;;;5036626;28;20040;-80
2021/09/01 01:02:05;;;;;;;7.95;3.80;;;17.60;72.90;;;;;;5036714;28;20044;-81
2021/09/01 01:04:33;;;;;;;6.75;3.72;;;17.60;73.30;;;;;;5055840;28;20021;-80
2021/09/01 01:07:01;;;;;;;5.43;3.33;;;17.50;73.60;;;;;;5057786;28;20033;-80
2021/09/01 01:09:27;;;;;;;5.07;3.30;;;17.50;73.50;;;;;;5044383;28;20021;-80
2021/09/01 01:12:10;;;;;;;6.50;3.70;;;17.60;73.30;;;;;;5037770;28;20049;-80
2021/09/01 01:14:41;;;;;;;5.78;3.55;;;17.60;73.00;;;;;;5037681;28;20044;-81
2021/09/01 01:17:09;;;;;;;5.47;3.05;;;17.60;73.00;;;;;;5037174;28;20048;-80
2021/09/01 01:19:39;;;;;;;7.10;3.67;;;17.60;73.10;;;;;;5057065;28;20032;-80
2021/09/01 01:22:05;;;;;;;6.35;3.60;;;17.50;73.50;;;;;;5057557;28;20097;-80
2021/09/01 01:24:47;;;;;;;4.75;3.50;;;17.40;73.80;;;;;;5055262;28;20021;-80
2021/09/01 01:27:48;;;;;;;4.80;3.38;;;17.40;74.10;;;;;;5057317;28;20040;-80
2021/09/01 01:30:18;;;;;;;5.88;3.35;;;17.30;74.60;;;;;;5048061;28;20033;-80
2021/09/01 01:32:46;;;;;;;5.40;3.53;;;17.30;74.10;;;;;;5037038;28;20084;-80
2021/09/01 01:35:23;;;;;;;5.00;3.55;;;17.30;74.50;;;;;;5037276;28;20030;-80
2021/09/01 01:37:48;;;;;;;6.72;3.70;;;17.30;74.40;;;;;;5037284;28;20080;-80
2021/09/01 01:40:14;;;;;;;5.95;3.63;;;17.30;74.40;;;;;;5042975;28;20016;-81
2021/09/01 01:42:40;;;;;;;5.55;3.47;;;17.30;74.10;;;;;;5077243;28;20052;-80
2021/09/01 01:45:07;;;;;;;7.43;4.03;;;17.30;73.80;;;;;;5076926;28;20056;-80
2021/09/01 01:47:33;;;;;;;4.63;3.58;;;17.30;73.80;;;;;;5057229;28;20037;-81
2021/09/01 01:49:59;;;;;;;6.75;3.28;;;17.30;74.10;;;;;;5056883;28;20025;-80
2021/09/01 01:52:24;;;;;;;6.63;4.00;;;17.30;74.20;;;;;;5057027;28;20056;-80
2021/09/01 01:54:50;;;;;;;7.47;3.70;;;17.30;74.20;;;;;;5043249;28;20026;-80
2021/09/01 01:57:20;;;;;;;5.03;3.10;;;17.30;74.10;;;;;;5041114;28;20025;-80
2021/09/01 01:59:46;;;;;;;8.70;3.90;;;17.30;74.00;;;;;;5042965;28;20484;-80
2021/09/01 02:02:11;;;;;;;7.63;3.40;;;17.30;74.50;;;;;;5036835;28;20119;-80
2021/09/01 02:04:37;;;;;;;6.03;3.45;;;17.20;74.50;;;;;;5036762;28;20080;-80
2021/09/01 02:07:03;;;;;;;4.65;3.35;;;17.20;74.30;;;;;;5036637;28;20033;-80
2021/09/01 02:09:28;;;;;;;6.38;3.75;;;17.20;74.30;;;;;;5035337;28;20026;-80
2021/09/01 02:11:54;;;;;;;7.57;3.75;;;17.20;74.10;;;;;;5036688;28;20033;-80
2021/09/01 02:14:20;;;;;;;6.70;3.50;;;17.10;74.70;;;;;;5036370;28;20052;-80
2021/09/01 02:16:45;;;;;;;6.45;3.78;;;17.10;74.50;;;;;;5036646;28;20040;-80
2021/09/01 02:19:11;;;;;;;6.22;3.58;;;17.10;74.40;;;;;;5051091;28;20032;-80
2021/09/01 02:21:38;;;;;;;4.90;3.33;;;17.20;73.90;;;;;;5055303;28;20031;-80
2021/09/01 02:24:05;;;;;;;5.70;3.65;;;17.10;74.40;;;;;;5056240;28;20040;-81
2021/09/01 02:26:31;;;;;;;7.85;4.07;;;17.10;74.20;;;;;;5048054;28;20028;-80
2021/09/01 02:28:57;;;;;;;5.40;3.47;;;17.10;74.00;;;;;;5034939;28;20487;-80
2021/09/01 02:31:23;;;;;;;6.03;3.83;;;17.10;74.70;;;;;;5036275;28;20393;-80
2021/09/01 02:33:49;;;;;;;6.18;3.65;;;17.00;74.40;;;;;;5034785;28;20032;-80
2021/09/01 02:36:15;;;;;;;6.47;3.28;;;17.10;74.40;;;;;;5035970;28;20112;-80
2021/09/01 02:38:44;;;;;;;7.85;3.53;;;17.10;74.10;;;;;;5051612;28;20033;-80
2021/09/01 02:41:11;;;;;;;7.60;3.93;;;17.00;74.60;;;;;;5065243;28;20050;-80
2021/09/01 02:43:36;;;;;;;6.28;3.28;;;16.90;74.90;;;;;;5065049;28;20017;-80
2021/09/01 02:46:03;;;;;;;5.55;3.70;;;16.90;74.80;;;;;;5034549;28;20040;-80
2021/09/01 02:48:28;;;;;;;8.35;3.67;;;16.80;75.10;;;;;;5050332;28;20030;-80
2021/09/01 02:50:54;;;;;;;5.97;3.33;;;16.90;75.00;;;;;;5035903;28;20492;-80
2021/09/01 02:53:20;;;;;;;6.97;3.67;;;16.90;74.70;;;;;;5035853;28;20022;-79
2021/09/01 02:55:45;;;;;;;6.68;3.55;;;16.90;74.60;;;;;;5035659;28;20025;-80
2021/09/01 02:58:11;;;;;;;4.82;3.42;;;16.80;75.00;;;;;;5050728;28;20029;-80
2021/09/01 03:00:37;;;;;;;7.13;3.70;;;16.80;74.90;;;;;;5036017;28;20029;-80
2021/09/01 03:03:03;;;;;;;6.88;3.90;;;16.80;74.70;;;;;;5035642;28;20037;-80
2021/09/01 03:05:29;;;;;;;6.85;3.90;;;16.80;74.60;;;;;;5034893;28;20555;-80
2021/09/01 03:07:55;;;;;;;5.45;3.60;;;16.80;74.50;;;;;;5055493;28;20076;-80
2021/09/01 03:10:21;;;;;;;7.65;3.95;;;16.80;74.60;;;;;;5055454;28;20556;-80
2021/09/01 03:12:46;;;;;;;5.85;3.90;;;16.80;74.40;;;;;;5049412;28;20157;-80
2021/09/01 03:15:12;;;;;;;5.57;3.83;;;16.80;74.70;;;;;;5035467;28;20088;-80
2021/09/01 03:17:38;;;;;;;5.35;3.95;;;16.80;74.60;;;;;;5035404;28;20028;-80
2021/09/01 03:20:04;;;;;;;8.13;3.83;;;16.80;74.60;;;;;;5044865;28;20029;-81
2021/09/01 03:22:30;;;;;;;7.22;4.22;;;16.80;74.50;;;;;;5034325;28;20175;-80
2021/09/01 03:24:56;;;;;;;7.85;4.25;;;16.80;74.60;;;;;;5035088;28;20090;-80
2021/09/01 03:27:21;;;;;;;6.82;3.78;;;16.80;74.90;;;;;;5035402;28;20021;-79
2021/09/01 03:29:48;;;;;;;7.30;4.25;;;16.80;74.70;;;;;;5035344;28;20097;-80
2021/09/01 03:32:14;;;;;;;6.93;4.25;;;16.70;74.60;;;;;;5034969;28;20021;-80
2021/09/01 03:34:39;;;;;;;5.15;4.10;;;16.70;74.80;;;;;;5050581;28;20132;-80
2021/09/01 03:37:05;;;;;;;4.75;3.40;;;16.60;74.90;;;;;;5035202;28;20029;-80
2021/09/01 03:39:30;;;;;;;6.25;4.47;;;16.70;74.90;;;;;;5035191;28;20026;-80
2021/09/01 03:41:56;;;;;;;8.77;4.45;;;16.60;75.10;;;;;;5069031;28;20056;-80
2021/09/01 03:44:22;;;;;;;8.00;4.93;;;16.60;75.20;;;;;;5065169;28;20029;-80
2021/09/01 03:46:47;;;;;;;6.38;4.85;;;16.70;75.30;;;;;;5034944;28;20036;-80
2021/09/01 03:49:17;;;;;;;5.93;4.70;;;16.60;75.00;;;;;;5033636;28;20056;-80
2021/09/01 03:51:47;;;;;;;8.70;4.57;;;16.60;74.90;;;;;;5035154;28;20014;-80
2021/09/01 03:54:13;;;;;;;8.25;4.57;;;16.70;74.80;;;;;;5049140;28;20288;-80
2021/09/01 03:56:39;;;;;;;7.22;4.78;;;16.70;74.60;;;;;;5050393;28;20037;-80
2021/09/01 03:59:05;;;;;;;7.43;5.40;;;16.60;75.10;;;;;;5034895;28;20025;-80
2021/09/01 04:01:32;;;;;;;6.22;4.35;;;16.60;75.10;;;;;;5035065;28;20108;-80
2021/09/01 04:04:00;;;;;;;7.72;5.10;;;16.50;75.10;;;;;;5049147;28;20511;-80
2021/09/01 04:06:26;;;;;;;6.13;4.53;;;16.60;75.10;;;;;;5050415;28;20021;-80
2021/09/01 04:08:51;;;;;;;6.88;4.55;;;16.50;75.20;;;;;;5034819;28;20029;-80
2021/09/01 04:11:17;;;;;;;8.07;5.43;;;16.50;75.30;;;;;;5033598;28;20032;-80
2021/09/01 04:13:42;;;;;;;7.20;4.47;;;16.40;75.70;;;;;;5034758;28;20036;-81
2021/09/01 04:16:08;;;;;;;8.15;4.95;;;16.50;75.40;;;;;;5049989;28;20114;-81
2021/09/01 04:18:34;;;;;;;10.23;5.57;;;16.40;75.90;;;;;;5035270;28;20033;-81
2021/09/01 04:21:00;;;;;;;8.45;6.05;;;16.40;75.50;;;;;;5037594;28;20029;-80
2021/09/01 04:23:26;;;;;;;7.93;5.18;;;16.40;75.60;;;;;;5038493;28;20711;-80
2021/09/01 04:25:54;;;;;;;8.18;4.93;;;16.40;75.50;;;;;;5037331;28;20033;-80
2021/09/01 04:28:20;;;;;;;7.00;5.38;;;16.30;75.90;;;;;;5037417;28;20021;-80
2021/09/01 04:30:46;;;;;;;7.65;5.05;;;16.30;76.00;;;;;;5038468;28;20163;-80
2021/09/01 04:33:11;;;;;;;8.15;5.38;;;16.30;75.70;;;;;;5037623;28;20028;-80
2021/09/01 04:35:37;;;;;;;5.30;4.80;;;16.30;76.10;;;;;;5058368;28;20495;-80
2021/09/01 04:38:03;;;;;;;6.82;5.00;;;16.30;75.90;;;;;;5049138;28;20503;-80
2021/09/01 04:40:29;;;;;;;6.15;4.68;;;16.30;76.00;;;;;;5046168;28;20028;-80
2021/09/01 04:42:58;;;;;;;9.05;5.70;;;16.30;76.40;;;;;;5076341;28;20040;-81
2021/09/01 04:45:23;;;;;;;8.48;5.57;;;16.30;76.20;;;;;;5063860;28;20036;-78
2021/09/01 04:47:49;;;;;;;8.95;5.63;;;16.30;76.00;;;;;;5044002;28;20017;-80
2021/09/01 04:50:15;;;;;;;8.70;5.80;;;16.30;76.30;;;;;;5036691;28;20030;-78
2021/09/01 04:52:41;;;;;;;9.60;6.20;;;16.30;76.20;;;;;;5037797;28;20097;-78
2021/09/01 04:55:08;;;;;;;7.40;5.65;;;16.30;76.20;;;;;;5036774;28;20064;-78
2021/09/01 04:57:33;;;;;;;7.05;5.55;;;16.30;75.90;;;;;;5038057;28;20021;-78
2021/09/01 04:59:59;;;;;;;9.27;5.82;;;16.30;75.80;;;;;;5053912;28;20029;-85
2021/09/01 05:02:25;;;;;;;8.48;5.85;;;16.30;75.70;;;;;;5055224;28;20036;-78
2021/09/01 05:04:51;;;;;;;9.70;5.35;;;16.30;75.80;;;;;;5037807;28;20037;-79
2021/09/01 05:07:16;;;;;;;6.80;5.18;;;16.20;76.40;;;;;;5036480;28;20049;-78
2021/09/01 05:09:42;;;;;;;10.10;5.68;;;16.20;76.10;;;;;;5038003;28;20037;-78
2021/09/01 05:12:08;;;;;;;8.63;5.88;;;16.30;76.10;;;;;;5057791;28;20021;-84
2021/09/01 05:14:34;;;;;;;7.57;5.70;;;16.20;76.10;;;;;;5048158;28;20049;-81
2021/09/01 05:17:02;;;;;;;9.73;5.85;;;16.30;76.10;;;;;;5056444;28;20044;-80
2021/09/01 05:19:28;;;;;;;6.45;4.93;;;16.20;76.00;;;;;;5056555;28;20044;-79
2021/09/01 05:21:55;;;;;;;7.97;5.90;;;16.30;75.90;;;;;;5054366;28;20493;-80
2021/09/01 05:24:43;;;;;;;8.68;6.00;;;16.20;76.00;;;;;;5047935;28;20021;-80
2021/09/01 05:27:08;;;;;;;8.57;5.68;;;16.10;76.40;;;;;;5035944;28;20029;-80
2021/09/01 05:29:40;;;;;;;7.75;5.82;;;16.20;76.10;;;;;;5037095;28;20028;-79
2021/09/01 05:32:10;;;;;;;9.55;6.10;;;16.20;76.20;;;;;;5052759;28;20038;-80
2021/09/01 05:34:36;;;;;;;8.35;6.03;;;16.10;76.40;;;;;;5031008;28;20025;-80
2021/09/01 05:37:02;;;;;;;8.43;5.72;;;16.10;76.40;;;;;;5035490;28;20116;-80
2021/09/01 05:39:28;;;;;;;8.95;6.25;;;16.10;76.30;;;;;;5037290;28;20017;-80
2021/09/01 05:41:54;;;;;;;9.38;6.13;;;16.20;76.10;;;;;;5051250;28;20091;-79
2021/09/01 05:44:20;;;;;;;6.90;5.90;;;16.20;76.20;;;;;;5037324;28;20021;-80
2021/09/01 05:46:47;;;;;;;7.93;6.18;;;16.10;76.10;;;;;;5036914;28;20068;-79
2021/09/01 05:49:13;;;;;;;8.30;6.70;;;16.20;76.00;;;;;;5043793;28;20112;-79
2021/09/01 05:51:39;;;;;;;11.18;6.50;;;16.20;76.10;;;;;;5036822;28;20055;-80
2021/09/01 05:54:05;;;;;;;12.30;6.18;;;16.10;76.20;;;;;;5034615;28;20128;-80
2021/09/01 05:56:34;;;;;;;8.50;6.80;;;16.10;76.20;;;;;;5038811;28;20024;-79
2021/09/01 05:59:06;;;;;;;7.60;6.55;;;16.20;76.00;;;;;;5046097;28;20029;-79
2021/09/01 06:01:38;;;;;;;8.45;6.57;;;16.10;76.10;;;;;;5043470;28;20032;-79
2021/09/01 06:04:08;;;;;;;8.20;6.70;;;16.00;76.60;;;;;;5043439;28;20104;-80
2021/09/01 06:06:38;;;;;;;10.00;6.23;;;16.10;76.50;;;;;;5044706;28;20487;-80
2021/09/01 06:09:07;;;;;;;9.35;7.05;;;16.10;76.20;;;;;;5042315;28;20778;-79
2021/09/01 06:11:36;;;;;;;9.35;6.85;;;16.20;76.00;;;;;;5044401;28;20487;-79
2021/09/01 06:14:01;;;;;;;10.13;6.93;;;16.20;76.20;;;;;;5039446;28;20032;-80
2021/09/01 06:16:27;;;;;;;9.88;7.28;;;16.20;76.10;;;;;;5043180;28;20056;-79
2021/09/01 06:18:53;;;;;;;10.65;8.50;;;16.30;75.80;;;;;;5041540;28;20068;-78
2021/09/01 06:21:18;;;;;;;9.25;7.50;;;16.30;75.50;;;;;;5044590;28;20032;-78
2021/09/01 06:23:45;;;;;;;10.60;7.13;;;16.30;75.40;;;;;;5044287;28;20033;-78
2021/09/01 06:26:11;;;;;;;11.27;7.80;;;16.30;75.60;;;;;;5042290;28;20029;-79
2021/09/01 06:28:37;;;;;;;9.57;7.30;;;16.20;76.00;;;;;;5045060;28;20501;-78
2021/09/01 06:31:03;;;;;;;10.85;7.75;;;16.30;75.90;;;;;;5042491;28;20079;-78
2021/09/01 06:33:30;;;;;;;10.02;8.50;;;16.30;76.10;;;;;;5043335;28;20029;-79
2021/09/01 06:35:55;;;;;;;9.30;8.00;;;16.20;76.50;;;;;;5044538;28;20475;-78
2021/09/01 06:38:21;;;;;;;12.23;8.95;;;16.30;76.00;;;;;;5043483;28;20056;-78
2021/09/01 06:40:47;;;;;;;10.88;7.90;;;16.30;76.00;;;;;;5049219;28;20025;-77
2021/09/01 06:43:12;;;;;;;9.63;7.95;;;16.40;75.70;;;;;;5041277;28;20467;-78
2021/09/01 06:45:40;;;;;;;9.30;7.82;;;16.50;75.60;;;;;;5042286;28;20056;-78
2021/09/01 06:48:09;;;;;;;10.95;8.43;;;16.60;75.40;;;;;;5042715;28;20029;-79
2021/09/01 06:50:34;;;;;;;9.45;8.38;;;16.60;75.40;;;;;;5041943;28;20479;-78
2021/09/01 06:53:00;;;;;;;9.95;8.55;;;16.60;75.50;;;;;;5044585;28;20063;-78
2021/09/01 06:55:26;;;;;;;11.57;8.63;;;16.60;75.40;;;;;;5042526;28;20108;-78
2021/09/01 06:57:51;;;;;;;14.52;8.95;;;16.60;75.50;;;;;;5042931;28;20039;-78
2021/09/01 07:00:19;;;;;;;8.73;7.82;;;16.80;75.20;;;;;;5044623;28;20029;-79
2021/09/01 07:02:46;;;;;;;10.75;7.80;;;16.80;75.10;;;;;;5041848;28;20463;-78
2021/09/01 07:05:14;;;;;;;10.15;8.00;;;16.80;75.10;;;;;;5044402;28;20032;-78
2021/09/01 07:07:41;;;;;;;13.10;8.63;;;16.90;74.70;;;;;;5041712;28;20024;-79
2021/09/01 07:10:07;;;;;;;9.65;7.85;;;16.90;74.90;;;;;;5041370;28;20033;-78
2021/09/01 07:12:33;;;;;;;10.20;7.68;;;17.10;74.50;;;;;;5034782;28;20040;-82
2021/09/01 07:14:59;;;;;;;9.75;7.97;;;17.20;74.10;;;;;;5045361;28;20058;-82
2021/09/01 07:17:25;;;;;;;11.13;8.43;;;17.30;73.90;;;;;;5043719;28;20025;-79
2021/09/01 07:19:50;;;;;;;11.75;8.80;;;17.40;73.70;;;;;;5042079;28;20065;-80
2021/09/01 07:22:16;;;;;;;12.23;9.27;;;17.40;73.60;;;;;;5053688;28;20045;-79
2021/09/01 07:24:42;;;;;;;10.00;8.52;;;17.50;73.10;;;;;;5053902;28;20025;-78
2021/09/01 07:27:07;;;;;;;12.07;8.70;;;17.80;72.50;;;;;;5054129;28;20025;-78
2021/09/01 07:29:33;;;;;;;9.45;8.13;;;17.80;71.60;;;;;;5052742;28;20040;-79
2021/09/01 07:31:59;;;;;;;9.25;7.82;;;17.90;72.00;;;;;;5052862;28;20541;-79
2021/09/01 07:34:24;;;;;;;8.35;7.45;;;18.00;71.60;;;;;;5054526;28;20029;-79
2021/09/01 07:36:50;;;;;;;10.35;8.15;;;18.30;70.80;;;;;;5047931;28;20034;-79
2021/09/01 07:39:16;;;;;;;8.63;6.75;;;19.20;68.50;;;;;;5034205;28;20021;-79
2021/09/01 07:41:41;;;;;;;8.43;7.03;;;20.30;65.00;;;;;;5036014;28;20065;-79
2021/09/01 07:44:07;;;;;;;8.00;6.68;;;22.10;60.00;;;;;;5039455;28;20534;-84
2021/09/01 07:46:34;;;;;;;8.93;6.70;;;24.20;53.40;;;;;;5034146;28;20040;-84
2021/09/01 07:49:01;;;;;;;5.97;5.38;;;25.80;48.00;;;;;;5034445;28;20780;-84
2021/09/01 07:51:28;;;;;;;6.45;5.85;;;26.80;43.90;;;;;;5038596;28;20590;-85
2021/09/01 07:53:53;;;;;;;6.07;5.47;;;28.00;43.00;;;;;;5054098;28;20037;-83
2021/09/01 07:56:19;;;;;;;6.45;5.80;;;28.60;40.90;;;;;;5058145;28;20112;-83
2021/09/01 07:58:45;;;;;;;6.40;5.80;;;29.20;39.80;;;;;;5053841;28;20021;-82
2021/09/01 08:01:11;;;;;;;6.35;5.75;;;29.60;38.70;;;;;;5037871;28;20032;-81
2021/09/01 08:03:36;;;;;;;6.93;5.72;;;29.80;39.00;;;;;;5037866;28;20022;-83
2021/09/01 08:06:04;;;;;;;6.70;6.00;;;29.80;37.00;;;;;;5037049;28;20563;-82
2021/09/01 08:08:30;;;;;;;7.25;5.80;;;29.80;38.10;;;;;;5045162;28;20025;-81
2021/09/01 08:10:56;;;;;;;6.30;5.65;;;30.60;36.20;;;;;;5046715;28;20152;-81
2021/09/01 08:13:22;;;;;;;9.73;6.53;;;30.50;36.60;;;;;;5041494;28;20171;-81
2021/09/01 08:15:47;;;;;;;5.93;5.43;;;31.00;36.10;;;;;;5038176;28;20404;-82
2021/09/01 08:18:13;;;;;;;6.28;4.88;;;31.60;35.10;;;;;;5037852;28;20496;-80
2021/09/01 08:20:39;;;;;;;5.55;5.05;;;31.70;35.20;;;;;;5036577;28;20037;-81
2021/09/01 08:23:05;;;;;;;5.57;4.88;;;31.80;34.10;;;;;;5036338;28;20018;-81
2021/09/01 08:25:30;;;;;;;5.40;4.63;;;32.20;34.30;;;;;;5037553;28;20380;-81
2021/09/01 08:27:56;;;;;;;5.43;4.88;;;31.60;34.50;;;;;;5048045;28;20650;-81
2021/09/01 08:30:21;;;;;;;5.45;4.88;;;31.90;34.60;;;;;;5056487;28;20551;-80
2021/09/01 08:32:47;;;;;;;6.32;5.10;;;32.10;33.90;;;;;;5053001;28;20035;-85
2021/09/01 08:35:13;;;;;;;5.25;4.75;;;32.50;33.20;;;;;;5052753;28;20064;-81
2021/09/01 08:37:39;;;;;;;5.47;4.90;;;32.10;33.00;;;;;;5037791;28;20041;-83
2021/09/01 08:40:07;;;;;;;5.28;4.78;;;32.00;33.10;;;;;;5038798;28;20049;-83
2021/09/01 08:42:35;;;;;;;6.53;5.10;;;31.00;34.40;;;;;;5075970;28;20221;-83
2021/09/01 08:45:01;;;;;;;5.60;4.78;;;29.40;37.50;;;;;;5035779;28;20037;-83
2021/09/01 08:47:27;;;;;;;5.10;4.60;;;29.50;38.20;;;;;;5052487;28;20029;-82
2021/09/01 08:49:53;;;;;;;5.32;4.82;;;29.70;38.30;;;;;;5050763;28;20088;-84
2021/09/01 08:52:20;;;;;;;6.25;4.63;;;30.40;36.20;;;;;;5057008;28;20017;-84
2021/09/01 08:54:46;;;;;;;7.45;5.10;;;30.70;35.90;;;;;;5055263;28;20112;-83
2021/09/01 08:57:13;;;;;;;5.95;4.70;;;30.40;36.60;;;;;;5051342;28;20105;-82
2021/09/01 08:59:38;;;;;;;4.93;4.40;;;30.10;36.70;;;;;;5037224;28;20059;-82
2021/09/01 09:02:04;;;;;;;5.28;4.70;;;30.10;36.70;;;;;;5036644;28;20831;-85
2021/09/01 09:04:35;;;;;;;7.25;4.75;;;30.40;36.90;;;;;;5036218;28;20060;-85
2021/09/01 09:07:05;;;;;;;6.93;4.55;;;30.30;36.00;;;;;;5036973;28;20022;-85
2021/09/01 09:09:33;;;;;;;5.45;4.43;;;29.30;37.90;;;;;;5037139;28;20060;-85
2021/09/01 09:12:01;;;;;;;5.60;5.00;;;28.80;37.60;;;;;;5037030;28;20022;-84
2021/09/01 09:14:31;;;;;;;5.53;4.70;;;28.30;38.50;;;;;;5037996;28;20030;-84
2021/09/01 09:17:12;;;;;;;5.22;4.25;;;28.90;38.60;;;;;;5036507;28;20104;-84
2021/09/01 09:19:54;;;;;;;6.32;4.45;;;28.70;38.10;;;;;;5036763;28;20029;-84
2021/09/01 09:22:30;;;;;;;5.20;4.70;;;28.00;40.20;;;;;;5040818;28;20029;-83
2021/09/01 09:25:03;;;;;;;5.85;4.38;;;28.80;39.80;;;;;;5054743;28;20032;-83
2021/09/01 09:27:50;;;;;;;5.60;4.88;;;28.60;39.60;;;;;;5045040;28;20171;-84
2021/09/01 09:30:19;;;;;;;4.85;4.22;;;27.30;40.90;;;;;;5052576;28;20029;-85
2021/09/01 09:33:02;;;;;;;5.45;4.40;;;27.80;41.70;;;;;;5055032;28;20036;-84
2021/09/01 09:35:45;;;;;;;5.90;4.38;;;29.10;39.50;;;;;;5040195;28;20029;-86
2021/09/01 09:38:10;;;;;;;4.90;4.40;;;29.00;38.60;;;;;;5053296;28;20063;-85
2021/09/01 09:40:36;;;;;;;6.15;4.72;;;29.10;38.90;;;;;;5046029;28;20025;-84
2021/09/01 09:43:16;;;;;;;5.57;3.70;;;30.10;36.50;;;;;;5050959;28;20156;-86
2021/09/01 09:45:44;;;;;;;4.85;4.30;;;30.70;35.60;;;;;;5045603;28;20065;-82
2021/09/01 09:48:09;;;;;;;5.53;4.07;;;31.30;34.90;;;;;;5043994;28;20484;-82
2021/09/01 09:50:35;;;;;;;4.72;3.95;;;31.70;34.60;;;;;;5062106;28;20155;-82
2021/09/01 09:53:01;;;;;;;4.72;4.30;;;32.10;33.90;;;;;;5055041;28;20027;-82
2021/09/01 09:55:27;;;;;;;4.57;4.13;;;31.80;33.60;;;;;;5046748;28;20140;-82
2021/09/01 09:57:53;;;;;;;6.07;4.60;;;31.10;34.40;;;;;;5035754;28;20029;-84
2021/09/01 10:00:21;;;;;;;5.68;4.57;;;30.70;35.10;;;;;;5031395;28;20061;-84
2021/09/01 10:02:47;;;;;;;4.95;4.55;;;30.10;36.60;;;;;;5055782;28;20376;-84
2021/09/01 10:05:13;;;;;;;5.68;5.07;;;29.10;37.10;;;;;;5039417;28;20039;-84
2021/09/01 10:07:39;;;;;;;6.07;4.93;;;28.30;39.30;;;;;;5052234;28;20110;-82
2021/09/01 10:10:06;;;;;;;5.63;5.00;;;27.90;40.80;;;;;;5055271;28;20021;-84
2021/09/01 10:12:39;;;;;;;5.63;4.65;;;27.90;41.30;;;;;;5042916;28;20048;-82
2021/09/01 10:15:09;;;;;;;4.85;4.35;;;27.60;41.50;;;;;;5052489;28;20078;-84
2021/09/01 10:17:39;;;;;;;;;;;27.30;42.70;;;;;;5040127;28;20040;-82
2021/09/01 10:20:08;;;;;;;5.53;4.55;;;27.10;42.20;;;;;;5052420;28;19913;-83
2021/09/01 10:22:34;;;;;;;7.10;4.55;;;27.00;43.20;;;;;;5053025;28;20033;-84
2021/09/01 10:25:00;;;;;;;5.97;4.63;;;26.90;43.00;;;;;;5041538;28;20025;-83
2021/09/01 10:27:28;;;;;;;6.50;5.10;;;26.80;42.90;;;;;;5054826;28;20036;-84
2021/09/01 10:29:58;;;;;;;5.05;4.55;;;26.50;42.90;;;;;;5045606;28;20024;-85
2021/09/01 10:32:40;;;;;;;5.68;4.40;;;26.30;44.20;;;;;;5051763;28;20422;-83
2021/09/01 10:35:12;;;;;;;4.70;4.18;;;26.10;44.40;;;;;;5045974;28;20036;-82
2021/09/01 10:37:45;;;;;;;5.70;4.20;;;26.20;44.50;;;;;;5051641;28;20386;-84
2021/09/01 10:40:15;;;;;;;4.63;4.05;;;26.30;44.90;;;;;;5053120;28;20387;-83
2021/09/01 10:42:44;;;;;;;6.32;4.07;;;26.40;44.90;;;;;;5043784;28;20055;-83
2021/09/01 10:45:16;;;;;;;4.93;3.80;;;26.80;44.10;;;;;;5034418;28;20018;-84
2021/09/01 10:47:53;;;;;;;4.93;4.18;;;26.80;43.60;;;;;;5044105;28;20029;-84
2021/09/01 10:50:33;;;;;;;4.95;4.15;;;26.80;43.90;;;;;;5052690;28;20498;-84
2021/09/01 10:53:07;;;;;;;;;;;26.60;43.80;;;;;;5053906;28;20483;-84
2021/09/01 10:56:05;;;;;;;4.32;3.55;;;26.40;43.50;;;;;;5048742;28;19916;-84
2021/09/01 10:58:45;;;;;;;6.25;4.28;;;26.20;45.00;;;;;;5052629;28;20041;-82
2021/09/01 11:01:19;;;;;;;5.95;4.13;;;26.10;45.10;;;;;;5036148;28;20507;-83
2021/09/01 11:03:52;;;;;;;4.43;3.85;;;26.00;45.00;;;;;;5054416;28;20491;-82
2021/09/01 11:06:23;;;;;;;5.93;3.47;;;26.10;45.00;;;;;;5038837;28;20032;-83
2021/09/01 11:09:14;;;;;;;5.38;3.28;;;26.20;45.30;;;;;;5046422;28;20025;-83
2021/09/01 11:11:48;;;;;;;5.05;3.45;;;26.30;44.80;;;;;;5043919;28;20596;-83
2021/09/01 11:14:28;;;;;;;4.40;3.58;;;26.20;44.00;;;;;;5047993;28;20040;-83
2021/09/01 11:16:54;;;;;;;4.75;3.92;;;26.00;44.50;;;;;;5044451;28;20406;-82
2021/09/01 11:19:21;;;;;;;4.13;2.90;;;25.80;45.10;;;;;;5037714;28;20084;-82
2021/09/01 11:21:47;;;;;;;4.35;3.53;;;25.90;45.50;;;;;;5042761;28;20162;-83
2021/09/01 11:24:16;;;;;;;4.32;2.80;;;25.80;45.00;;;;;;5044867;28;20063;-84
2021/09/01 11:26:43;;;;;;;3.77;3.00;;;25.80;44.80;;;;;;5050405;28;20032;-83
2021/09/01 11:29:10;;;;;;;3.63;2.70;;;25.70;45.30;;;;;;5040532;28;20264;-83
2021/09/01 11:31:44;;;;;;;5.03;3.17;;;25.70;46.00;;;;;;5052998;28;20028;-84
2021/09/01 11:34:14;;;;;;;3.75;2.95;;;25.60;45.50;;;;;;5048157;28;20030;-83
2021/09/01 11:36:42;;;;;;;5.85;3.97;;;25.60;45.90;;;;;;5039873;28;20036;-83
2021/09/01 11:39:10;;;;;;;4.80;3.30;;;25.50;45.70;;;;;;5053077;28;20060;-83
2021/09/01 11:41:36;;;;;;;4.25;2.97;;;25.40;46.10;;;;;;5052480;28;20024;-82
2021/09/01 11:44:08;;;;;;;3.75;2.92;;;25.40;45.50;;;;;;5041536;28;20518;-83
2021/09/01 11:46:36;;;;;;;5.10;3.45;;;25.40;45.60;;;;;;5052229;28;20037;-82
2021/09/01 11:49:05;;;;;;;4.10;2.75;;;25.30;45.40;;;;;;5044062;28;20014;-84
2021/09/01 11:51:31;;;;;;;4.40;3.33;;;25.30;46.10;;;;;;5053677;28;20032;-83
2021/09/01 11:53:59;;;;;;;4.72;3.03;;;25.10;46.40;;;;;;5044240;28;20082;-82
2021/09/01 11:56:28;;;;;;;4.03;3.15;;;24.90;46.50;;;;;;5052872;28;20025;-82
2021/09/01 11:59:04;;;;;;;5.35;3.50;;;24.80;46.40;;;;;;5045999;28;20033;-83
2021/09/01 12:01:32;;;;;;;4.13;3.22;;;24.70;46.30;;;;;;5044207;28;20036;-83
2021/09/01 12:03:58;;;;;;;3.75;2.97;;;24.80;46.80;;;;;;5049933;28;20052;-83
2021/09/01 12:06:45;;;;;;;3.80;2.92;;;24.90;46.20;;;;;;5035304;28;20107;-83
2021/09/01 12:09:13;;;;;;;4.85;3.13;;;24.90;47.10;;;;;;5050854;28;20029;-83
2021/09/01 12:12:01;;;;;;;3.90;2.95;;;25.00;46.90;;;;;;5045572;28;20035;-82
2021/09/01 12:14:32;;;;;;;4.43;2.85;;;25.10;46.20;;;;;;5052776;28;20028;-82
2021/09/01 12:17:14;;;;;;;5.03;3.00;;;25.10;46.00;;;;;;5052703;28;20064;-83
2021/09/01 12:19:49;;;;;;;5.32;3.45;;;25.20;45.10;;;;;;5033065;28;20036;-81
2021/09/01 12:22:41;;;;;;;3.60;2.90;;;25.10;45.20;;;;;;5033937;28;20507;-83
2021/09/01 12:25:19;;;;;;;7.22;3.25;;;25.20;44.90;;;;;;5034007;28;20029;-83
2021/09/01 12:28:02;;;;;;;3.42;2.55;;;25.30;45.10;;;;;;5046011;28;20751;-82
2021/09/01 12:30:30;;;;;;;3.35;2.65;;;25.10;45.40;;;;;;5034107;28;20017;-82
2021/09/01 12:33:00;;;;;;;3.70;2.65;;;25.20;45.80;;;;;;5033605;28;20508;-81
2021/09/01 12:35:28;;;;;;;5.88;2.83;;;25.30;45.80;;;;;;5033902;28;20022;-82
2021/09/01 12:37:55;;;;;;;4.13;2.85;;;25.50;46.40;;;;;;5033046;28;20033;-82
2021/09/01 12:40:46;;;;;;;3.45;2.67;;;25.20;45.50;;;;;;5058104;28;20510;-82
2021/09/01 12:43:12;;;;;;;3.70;2.53;;;25.20;45.00;;;;;;5064912;28;20084;-82
2021/09/01 12:45:40;;;;;;;6.75;2.47;;;25.20;44.90;;;;;;5037989;28;20053;-82
2021/09/01 12:48:09;;;;;;;3.92;3.03;;;25.40;46.00;;;;;;5037484;28;20399;-82
2021/09/01 12:50:44;;;;;;;4.32;2.95;;;25.40;45.80;;;;;;5037634;28;20026;-82